Leander — DD5959 — position and weather

sailwx.info

Track history (hours):
 
Tides and Currents Weather Stations Pressure Air Temp Water Temp Dewpoint Dewpoint Depression Visibility Wind Speed Wind Dir Waves Ship Positions

Leander

Last reported at 2014-Oct-10 16:21 UTC. Time now 2014-Dec-20 00:10 UTC.
Position N 41°15' E 001°54'.
Warning: this ship's position is months out of date.

Length 15 m.

Type: Sailing vessel. MMSI: 211480070.

Date/timePositionNaut miles runAvg speedWind from/ knotsBaromVisibWave heightAir tempDewpointWater temp
2014-Oct-10 16:21N 41°15' E 001°54'16 0.3
2014-Oct-08 15:16N 41°23' E 002°12'0 0.0
2014-Oct-08 14:28N 41°23' E 002°12'0 0.0
2014-Oct-08 13:16N 41°23' E 002°12'0 0.0
2014-Oct-08 12:28N 41°23' E 002°12'0 0.4
2014-Oct-08 11:31N 41°23' E 002°12'6 6.4
2014-Oct-08 10:31N 41°17' E 002°08'6 5.9
2014-Oct-08 09:32N 41°15' E 002°01'5 4.3
2014-Oct-08 08:21N 41°15' E 001°54'0 0.0
2014-Oct-07 16:32N 41°15' E 001°54'0 0.0
2014-Oct-07 15:26N 41°15' E 001°54'2 1.2
2014-Oct-07 13:32N 41°13' E 001°52'5 5.0
2014-Oct-07 12:33N 41°12' E 001°46'7 6.8
2014-Oct-07 11:30N 41°10' E 001°36'8 8.2
2014-Oct-07 10:31N 41°08' E 001°26'1 1.4
2014-Oct-07 09:29N 41°08' E 001°24'  
2014-Oct-03 13:29N 40°59' E 000°56'29 0.6
2014-Oct-01 13:27N 41°08' E 001°32'14 4.6
2014-Oct-01 10:22N 41°14' E 001°49'  
Track history (hours):
 
Tides and Currents Weather Stations Pressure Air Temp Water Temp Dewpoint Dewpoint Depression Visibility Wind Speed Wind Dir Waves Ship Positions

Leander

Last reported at 2014-Oct-10 16:21 UTC. Time now 2014-Dec-20 00:10 UTC.
Position N 41°15' E 001°54'.
Warning: this ship's position is months out of date.

Length 15 m.

Type: Sailing vessel. MMSI: 211480070.

Date/timePositionNaut miles runAvg speedWind from/ knotsBaromVisibWave heightAir tempDewpointWater temp
2014-Oct-10 16:21N 41°15' E 001°54'16 0.3
2014-Oct-08 15:16N 41°23' E 002°12'0 0.0
2014-Oct-08 14:28N 41°23' E 002°12'0 0.0
2014-Oct-08 13:16N 41°23' E 002°12'0 0.0
2014-Oct-08 12:28N 41°23' E 002°12'0 0.4
2014-Oct-08 11:31N 41°23' E 002°12'6 6.4
2014-Oct-08 10:31N 41°17' E 002°08'6 5.9
2014-Oct-08 09:32N 41°15' E 002°01'5 4.3
2014-Oct-08 08:21N 41°15' E 001°54'0 0.0
2014-Oct-07 16:32N 41°15' E 001°54'0 0.0
2014-Oct-07 15:26N 41°15' E 001°54'2 1.2
2014-Oct-07 13:32N 41°13' E 001°52'5 5.0
2014-Oct-07 12:33N 41°12' E 001°46'7 6.8
2014-Oct-07 11:30N 41°10' E 001°36'8 8.2
2014-Oct-07 10:31N 41°08' E 001°26'1 1.4
2014-Oct-07 09:29N 41°08' E 001°24'  
2014-Oct-03 13:29N 40°59' E 000°56'29 0.6
2014-Oct-01 13:27N 41°08' E 001°32'14 4.6
2014-Oct-01 10:22N 41°14' E 001°49'  

Dump ship's entire track history